BNA weather

Nashville International Airport
Nashville, Tennessee, United States

Public forecast

Using degrees Fahrenheit for public forecast. Weather courtesy of forecast.io.

Current aviation weather report (METAR) for Nashville International Airport

Retrieved 2019/10/21 02:53 UTC (43 minutes ago):

KBNA 210253Z 17006KT 10SM CLR 17/12 A2993 RMK AO2 SLP130 T01670122 53005

Aviation forecast (TAF) for Nashville International Airport

Retrieved 2019-10-21 00:22 UTC (3 hours ago):

TAF KBNA 202320Z 2100/2124 16005KT P6SM SKC FM210200 16007G17KT P6SM BKN070 FM211100 18011G20KT P6SM OVC040 FM211500 19015G27KT P6SM VCTS OVC035CB FM212100 20012G20KT 5SM -TSRA OVC020CB